Columbia Regional Airport
KCOU : now visible

Airfield :











YOU CAN JOIN US ON...

 
LOGIN :

Register | Disclaimer

   EN    FR    IT 

 









Legend :    VFR   Marginal VFR   IFR   Intensive IFR   Very Intensive IFR
Visi :
Ceiling :
>= 8 km
>= 3000ft
5 to 8 km
1000 to 3000 ft
1500m to 5 km
500 to 1000 ft
800 to 1500m
200 to 500 ft
< 800m
< 200 ft
Symbols :   Thunderstorms  Fog  Heavy snow  Heavy precipitations  Wind > 20 kt






- Airport Elevation : 889 ft
- IATA code : COU


KCOU - Columbia Regional

CURRENT METAR :
  • 301654Z 05006KT 10SM SCT019 BKN047 30/24 A3010 RMK AO2 SLP184 T03000239 $

EXPIRED METARs :
  • 301554Z 07006KT 10SM FEW048 SCT065 29/23 A3010 RMK AO2 SLP182 T02940233 $
  • 301454Z 07007KT 10SM FEW060 29/24 A3009 RMK AO2 SLP180 T02890239 51013 $

TAF KCOU
Valid from the 30 at 18:00 until the 31 at 18:00 UTC


301723Z 3018/3118 07007KT P6SM SCT020 BKN045
FM311000 12007KT P6SM VCTS BKN030CB
FM311500 11007KT P6SM VCSH OVC040
KZKC FIR / North America



MET'MAP, your aeronautical weather chart ! - Copyright ORBIFLY December 2007 - Disclaimer

ORBIFLY MET'MAP TEAM :

Programming & Development : Alexandra Zaïnal
Concept & original design : Baudouin d'Aumeries
Assistance for programming : Marc-Olivier Méhu
Technical & hardware support : Manuel Goepfert

Contact : metmap@orbifly.com




SOURCES & CREDITS :

   NOAA       Earth
Advisory